sensor_id;sensor_type;location;lat;lon;timestamp;P1;durP1;ratioP1;P2;durP2;ratioP2
44214;SDS011;29884;47.450;19.124;2022-09-09T00:01:59;1.90;;;0.40;;
44214;SDS011;29884;47.450;19.124;2022-09-09T00:04:36;0.68;;;0.40;;
44214;SDS011;29884;47.450;19.124;2022-09-09T00:07:09;0.50;;;0.40;;
44214;SDS011;29884;47.450;19.124;2022-09-09T00:09:53;0.75;;;0.38;;
44214;SDS011;29884;47.450;19.124;2022-09-09T00:12:24;0.50;;;0.35;;
44214;SDS011;29884;47.450;19.124;2022-09-09T00:14:55;0.77;;;0.40;;
44214;SDS011;29884;47.450;19.124;2022-09-09T00:17:31;0.60;;;0.38;;
44214;SDS011;29884;47.450;19.124;2022-09-09T00:20:16;0.88;;;0.30;;
44214;SDS011;29884;47.450;19.124;2022-09-09T00:23:06;0.40;;;0.40;;
44214;SDS011;29884;47.450;19.124;2022-09-09T00:26:01;0.28;;;0.28;;
44214;SDS011;29884;47.450;19.124;2022-09-09T00:28:45;0.45;;;0.30;;
44214;SDS011;29884;47.450;19.124;2022-09-09T00:31:16;1.30;;;0.30;;
44214;SDS011;29884;47.450;19.124;2022-09-09T00:33:47;0.38;;;0.30;;
44214;SDS011;29884;47.450;19.124;2022-09-09T00:36:17;0.40;;;0.30;;
44214;SDS011;29884;47.450;19.124;2022-09-09T00:38:51;1.10;;;0.10;;
44214;SDS011;29884;47.450;19.124;2022-09-09T00:43:55;1.20;;;0.20;;
44214;SDS011;29884;47.450;19.124;2022-09-09T00:59:59;0.40;;;0.30;;
44214;SDS011;29884;47.450;19.124;2022-09-09T01:02:53;0.50;;;0.30;;
44214;SDS011;29884;47.450;19.124;2022-09-09T01:11:10;1.00;;;0.60;;
44214;SDS011;29884;47.450;19.124;2022-09-09T01:14:10;3.15;;;1.20;;
44214;SDS011;29884;47.450;19.124;2022-09-09T01:16:50;2.15;;;1.10;;
44214;SDS011;29884;47.450;19.124;2022-09-09T01:19:27;3.35;;;1.10;;
44214;SDS011;29884;47.450;19.124;2022-09-09T01:22:15;1.83;;;1.23;;
44214;SDS011;29884;47.450;19.124;2022-09-09T01:25:06;2.45;;;0.90;;
44214;SDS011;29884;47.450;19.124;2022-09-09T01:27:35;1.35;;;0.65;;
44214;SDS011;29884;47.450;19.124;2022-09-09T01:30:05;0.98;;;0.50;;
44214;SDS011;29884;47.450;19.124;2022-09-09T01:35:32;1.63;;;0.50;;
44214;SDS011;29884;47.450;19.124;2022-09-09T01:38:13;1.10;;;0.68;;
44214;SDS011;29884;47.450;19.124;2022-09-09T01:40:40;1.73;;;0.60;;
44214;SDS011;29884;47.450;19.124;2022-09-09T01:43:06;0.90;;;0.57;;
44214;SDS011;29884;47.450;19.124;2022-09-09T01:45:32;0.80;;;0.52;;
44214;SDS011;29884;47.450;19.124;2022-09-09T01:47:59;1.30;;;0.70;;
44214;SDS011;29884;47.450;19.124;2022-09-09T01:50:25;3.13;;;0.70;;
44214;SDS011;29884;47.450;19.124;2022-09-09T01:52:52;1.55;;;0.75;;
44214;SDS011;29884;47.450;19.124;2022-09-09T01:55:23;1.02;;;0.70;;
44214;SDS011;29884;47.450;19.124;2022-09-09T02:00:44;0.88;;;0.60;;
44214;SDS011;29884;47.450;19.124;2022-09-09T02:03:23;2.53;;;0.70;;
44214;SDS011;29884;47.450;19.124;2022-09-09T02:08:47;1.13;;;0.73;;
44214;SDS011;29884;47.450;19.124;2022-09-09T02:11:16;2.13;;;0.65;;
44214;SDS011;29884;47.450;19.124;2022-09-09T02:13:47;1.95;;;0.80;;
44214;SDS011;29884;47.450;19.124;2022-09-09T02:16:50;1.55;;;0.90;;
44214;SDS011;29884;47.450;19.124;2022-09-09T02:24:18;0.73;;;0.60;;
44214;SDS011;29884;47.450;19.124;2022-09-09T02:26:44;1.05;;;0.95;;
44214;SDS011;29884;47.450;19.124;2022-09-09T02:29:20;1.35;;;0.70;;
44214;SDS011;29884;47.450;19.124;2022-09-09T02:31:50;3.17;;;0.70;;
44214;SDS011;29884;47.450;19.124;2022-09-09T02:34:20;2.35;;;0.52;;
44214;SDS011;29884;47.450;19.124;2022-09-09T02:36:48;0.90;;;0.60;;
44214;SDS011;29884;47.450;19.124;2022-09-09T02:39:15;0.95;;;0.70;;
44214;SDS011;29884;47.450;19.124;2022-09-09T02:41:41;0.63;;;0.60;;
44214;SDS011;29884;47.450;19.124;2022-09-09T02:44:11;1.10;;;0.70;;
44214;SDS011;29884;47.450;19.124;2022-09-09T02:49:20;0.65;;;0.50;;
44214;SDS011;29884;47.450;19.124;2022-09-09T02:52:14;1.37;;;0.50;;
44214;SDS011;29884;47.450;19.124;2022-09-09T02:54:43;0.70;;;0.50;;
44214;SDS011;29884;47.450;19.124;2022-09-09T02:57:17;0.50;;;0.40;;
44214;SDS011;29884;47.450;19.124;2022-09-09T02:59:46;1.13;;;0.40;;
44214;SDS011;29884;47.450;19.124;2022-09-09T03:02:13;0.50;;;0.40;;
44214;SDS011;29884;47.450;19.124;2022-09-09T03:04:39;0.55;;;0.30;;
44214;SDS011;29884;47.450;19.124;2022-09-09T03:07:06;1.48;;;0.40;;
44214;SDS011;29884;47.450;19.124;2022-09-09T03:09:33;0.50;;;0.40;;
44214;SDS011;29884;47.450;19.124;2022-09-09T03:11:58;0.55;;;0.32;;
44214;SDS011;29884;47.450;19.124;2022-09-09T03:14:24;0.47;;;0.40;;
44214;SDS011;29884;47.450;19.124;2022-09-09T03:16:53;0.63;;;0.38;;
44214;SDS011;29884;47.450;19.124;2022-09-09T03:19:19;0.55;;;0.50;;
44214;SDS011;29884;47.450;19.124;2022-09-09T03:21:46;0.68;;;0.50;;
44214;SDS011;29884;47.450;19.124;2022-09-09T03:24:12;1.10;;;0.60;;
44214;SDS011;29884;47.450;19.124;2022-09-09T03:26:39;1.67;;;0.50;;
44214;SDS011;29884;47.450;19.124;2022-09-09T03:29:06;0.63;;;0.40;;
44214;SDS011;29884;47.450;19.124;2022-09-09T03:31:33;2.72;;;0.60;;
44214;SDS011;29884;47.450;19.124;2022-09-09T03:33:59;0.93;;;0.70;;
44214;SDS011;29884;47.450;19.124;2022-09-09T03:36:25;1.23;;;0.60;;
44214;SDS011;29884;47.450;19.124;2022-09-09T03:38:52;2.28;;;0.60;;
44214;SDS011;29884;47.450;19.124;2022-09-09T03:41:19;2.70;;;0.70;;
44214;SDS011;29884;47.450;19.124;2022-09-09T03:43:47;0.80;;;0.60;;
44214;SDS011;29884;47.450;19.124;2022-09-09T03:46:12;1.88;;;0.50;;
44214;SDS011;29884;47.450;19.124;2022-09-09T03:48:38;0.90;;;0.55;;
44214;SDS011;29884;47.450;19.124;2022-09-09T03:51:04;0.90;;;0.65;;
44214;SDS011;29884;47.450;19.124;2022-09-09T03:53:29;2.08;;;0.70;;
44214;SDS011;29884;47.450;19.124;2022-09-09T03:55:56;0.80;;;0.52;;
44214;SDS011;29884;47.450;19.124;2022-09-09T03:58:24;1.15;;;0.65;;
44214;SDS011;29884;47.450;19.124;2022-09-09T04:00:58;2.45;;;0.70;;
44214;SDS011;29884;47.450;19.124;2022-09-09T04:03:25;0.88;;;0.65;;
44214;SDS011;29884;47.450;19.124;2022-09-09T04:05:52;0.70;;;0.60;;
44214;SDS011;29884;47.450;19.124;2022-09-09T04:08:18;1.25;;;0.60;;
44214;SDS011;29884;47.450;19.124;2022-09-09T04:10:45;2.92;;;0.70;;
44214;SDS011;29884;47.450;19.124;2022-09-09T04:13:12;0.98;;;0.60;;
44214;SDS011;29884;47.450;19.124;2022-09-09T04:15:40;0.70;;;0.60;;
44214;SDS011;29884;47.450;19.124;2022-09-09T04:18:06;0.93;;;0.50;;
44214;SDS011;29884;47.450;19.124;2022-09-09T04:20:32;1.63;;;0.82;;
44214;SDS011;29884;47.450;19.124;2022-09-09T04:22:58;1.10;;;0.60;;
44214;SDS011;29884;47.450;19.124;2022-09-09T04:25:23;1.25;;;0.80;;
44214;SDS011;29884;47.450;19.124;2022-09-09T04:27:53;6.32;;;0.85;;
44214;SDS011;29884;47.450;19.124;2022-09-09T04:30:20;1.55;;;0.80;;
44214;SDS011;29884;47.450;19.124;2022-09-09T04:32:46;1.80;;;0.75;;
44214;SDS011;29884;47.450;19.124;2022-09-09T04:35:12;2.67;;;0.73;;
44214;SDS011;29884;47.450;19.124;2022-09-09T04:37:37;2.78;;;0.80;;
44214;SDS011;29884;47.450;19.124;2022-09-09T04:40:04;2.65;;;0.98;;
44214;SDS011;29884;47.450;19.124;2022-09-09T04:42:30;2.47;;;1.00;;
44214;SDS011;29884;47.450;19.124;2022-09-09T04:47:29;1.58;;;0.80;;
44214;SDS011;29884;47.450;19.124;2022-09-09T04:49:55;1.83;;;0.80;;
44214;SDS011;29884;47.450;19.124;2022-09-09T04:52:21;0.95;;;0.60;;
44214;SDS011;29884;47.450;19.124;2022-09-09T04:54:47;2.08;;;0.75;;
44214;SDS011;29884;47.450;19.124;2022-09-09T04:57:13;1.42;;;0.77;;
44214;SDS011;29884;47.450;19.124;2022-09-09T04:59:39;2.78;;;0.70;;
44214;SDS011;29884;47.450;19.124;2022-09-09T05:02:05;1.35;;;0.85;;
44214;SDS011;29884;47.450;19.124;2022-09-09T05:04:31;1.45;;;0.80;;
44214;SDS011;29884;47.450;19.124;2022-09-09T05:06:58;1.40;;;0.68;;
44214;SDS011;29884;47.450;19.124;2022-09-09T05:09:24;1.85;;;0.70;;
44214;SDS011;29884;47.450;19.124;2022-09-09T05:11:50;2.30;;;0.75;;
44214;SDS011;29884;47.450;19.124;2022-09-09T05:14:16;0.93;;;0.50;;
44214;SDS011;29884;47.450;19.124;2022-09-09T05:16:44;0.55;;;0.40;;
44214;SDS011;29884;47.450;19.124;2022-09-09T05:19:10;0.70;;;0.50;;
44214;SDS011;29884;47.450;19.124;2022-09-09T05:21:36;2.67;;;0.50;;
44214;SDS011;29884;47.450;19.124;2022-09-09T05:24:02;1.73;;;0.65;;
44214;SDS011;29884;47.450;19.124;2022-09-09T05:26:28;1.52;;;0.52;;
44214;SDS011;29884;47.450;19.124;2022-09-09T05:28:55;2.08;;;0.60;;
44214;SDS011;29884;47.450;19.124;2022-09-09T05:31:21;0.68;;;0.47;;
44214;SDS011;29884;47.450;19.124;2022-09-09T05:33:47;0.60;;;0.50;;
44214;SDS011;29884;47.450;19.124;2022-09-09T05:36:18;1.92;;;0.57;;
44214;SDS011;29884;47.450;19.124;2022-09-09T05:38:45;2.40;;;0.60;;
44214;SDS011;29884;47.450;19.124;2022-09-09T05:41:11;1.92;;;0.60;;
44214;SDS011;29884;47.450;19.124;2022-09-09T05:43:38;1.77;;;0.60;;
44214;SDS011;29884;47.450;19.124;2022-09-09T05:46:05;0.88;;;0.50;;
44214;SDS011;29884;47.450;19.124;2022-09-09T05:48:36;1.05;;;0.50;;
44214;SDS011;29884;47.450;19.124;2022-09-09T05:51:04;1.33;;;0.70;;
44214;SDS011;29884;47.450;19.124;2022-09-09T05:53:32;3.00;;;0.50;;
44214;SDS011;29884;47.450;19.124;2022-09-09T05:56:02;1.25;;;0.40;;
44214;SDS011;29884;47.450;19.124;2022-09-09T05:58:31;2.00;;;0.50;;
44214;SDS011;29884;47.450;19.124;2022-09-09T06:01:04;1.25;;;0.40;;
44214;SDS011;29884;47.450;19.124;2022-09-09T06:03:36;0.60;;;0.50;;
44214;SDS011;29884;47.450;19.124;2022-09-09T06:06:04;1.25;;;0.50;;
44214;SDS011;29884;47.450;19.124;2022-09-09T06:08:31;2.35;;;0.50;;
44214;SDS011;29884;47.450;19.124;2022-09-09T06:11:02;0.60;;;0.50;;
44214;SDS011;29884;47.450;19.124;2022-09-09T06:13:32;0.60;;;0.40;;
44214;SDS011;29884;47.450;19.124;2022-09-09T06:15:58;0.55;;;0.40;;
44214;SDS011;29884;47.450;19.124;2022-09-09T06:18:25;2.88;;;0.50;;
44214;SDS011;29884;47.450;19.124;2022-09-09T06:23:21;0.95;;;0.32;;
44214;SDS011;29884;47.450;19.124;2022-09-09T06:25:46;0.57;;;0.40;;
44214;SDS011;29884;47.450;19.124;2022-09-09T06:28:13;1.08;;;0.40;;
44214;SDS011;29884;47.450;19.124;2022-09-09T06:30:40;1.90;;;0.40;;
44214;SDS011;29884;47.450;19.124;2022-09-09T06:33:06;3.20;;;0.40;;
44214;SDS011;29884;47.450;19.124;2022-09-09T06:35:31;2.67;;;0.57;;
44214;SDS011;29884;47.450;19.124;2022-09-09T06:37:57;0.95;;;0.43;;
44214;SDS011;29884;47.450;19.124;2022-09-09T06:40:23;1.23;;;0.40;;
44214;SDS011;29884;47.450;19.124;2022-09-09T06:42:49;1.48;;;0.40;;
44214;SDS011;29884;47.450;19.124;2022-09-09T06:45:16;2.05;;;0.40;;
44214;SDS011;29884;47.450;19.124;2022-09-09T06:47:42;0.98;;;0.40;;
44214;SDS011;29884;47.450;19.124;2022-09-09T06:50:08;0.75;;;0.40;;
44214;SDS011;29884;47.450;19.124;2022-09-09T06:52:35;0.80;;;0.50;;
44214;SDS011;29884;47.450;19.124;2022-09-09T06:55:01;0.77;;;0.60;;
44214;SDS011;29884;47.450;19.124;2022-09-09T06:57:27;1.13;;;0.60;;
44214;SDS011;29884;47.450;19.124;2022-09-09T06:59:53;1.30;;;0.50;;
44214;SDS011;29884;47.450;19.124;2022-09-09T07:02:19;3.42;;;0.50;;
44214;SDS011;29884;47.450;19.124;2022-09-09T07:04:45;0.98;;;0.50;;
44214;SDS011;29884;47.450;19.124;2022-09-09T07:07:10;0.60;;;0.40;;
44214;SDS011;29884;47.450;19.124;2022-09-09T07:09:38;1.02;;;0.45;;
44214;SDS011;29884;47.450;19.124;2022-09-09T07:12:05;0.98;;;0.50;;
44214;SDS011;29884;47.450;19.124;2022-09-09T07:14:31;0.70;;;0.40;;
44214;SDS011;29884;47.450;19.124;2022-09-09T07:16:59;2.35;;;0.50;;
44214;SDS011;29884;47.450;19.124;2022-09-09T07:19:25;1.88;;;0.60;;
44214;SDS011;29884;47.450;19.124;2022-09-09T07:21:51;1.15;;;0.50;;
44214;SDS011;29884;47.450;19.124;2022-09-09T07:24:17;1.70;;;0.47;;
44214;SDS011;29884;47.450;19.124;2022-09-09T07:26:42;1.52;;;0.50;;
44214;SDS011;29884;47.450;19.124;2022-09-09T07:29:09;1.25;;;0.50;;
44214;SDS011;29884;47.450;19.124;2022-09-09T07:31:39;1.00;;;0.50;;
44214;SDS011;29884;47.450;19.124;2022-09-09T07:34:04;0.43;;;0.30;;
44214;SDS011;29884;47.450;19.124;2022-09-09T07:36:34;0.50;;;0.40;;
44214;SDS011;29884;47.450;19.124;2022-09-09T07:39:05;0.98;;;0.30;;
44214;SDS011;29884;47.450;19.124;2022-09-09T07:41:38;0.50;;;0.40;;
44214;SDS011;29884;47.450;19.124;2022-09-09T07:44:06;0.52;;;0.30;;
44214;SDS011;29884;47.450;19.124;2022-09-09T07:46:36;1.85;;;0.40;;
44214;SDS011;29884;47.450;19.124;2022-09-09T07:49:04;1.80;;;0.40;;
44214;SDS011;29884;47.450;19.124;2022-09-09T07:51:32;1.40;;;0.50;;
44214;SDS011;29884;47.450;19.124;2022-09-09T07:54:00;1.45;;;0.50;;
44214;SDS011;29884;47.450;19.124;2022-09-09T07:56:28;1.25;;;0.40;;
44214;SDS011;29884;47.450;19.124;2022-09-09T07:58:55;1.25;;;0.50;;
44214;SDS011;29884;47.450;19.124;2022-09-09T08:01:29;0.90;;;0.47;;
44214;SDS011;29884;47.450;19.124;2022-09-09T08:04:03;1.77;;;0.50;;
44214;SDS011;29884;47.450;19.124;2022-09-09T08:06:40;0.88;;;0.32;;
44214;SDS011;29884;47.450;19.124;2022-09-09T08:09:09;1.00;;;0.40;;
44214;SDS011;29884;47.450;19.124;2022-09-09T08:11:35;0.95;;;0.30;;
44214;SDS011;29884;47.450;19.124;2022-09-09T08:14:02;1.58;;;0.40;;
44214;SDS011;29884;47.450;19.124;2022-09-09T08:16:29;0.82;;;0.30;;
44214;SDS011;29884;47.450;19.124;2022-09-09T08:18:57;0.20;;;0.20;;
44214;SDS011;29884;47.450;19.124;2022-09-09T08:21:27;2.38;;;0.20;;
44214;SDS011;29884;47.450;19.124;2022-09-09T08:23:54;0.40;;;0.30;;
44214;SDS011;29884;47.450;19.124;2022-09-09T08:26:22;0.93;;;0.20;;
44214;SDS011;29884;47.450;19.124;2022-09-09T08:28:50;0.35;;;0.10;;
44214;SDS011;29884;47.450;19.124;2022-09-09T08:31:21;1.05;;;0.30;;
44214;SDS011;29884;47.450;19.124;2022-09-09T08:33:48;0.85;;;0.20;;
44214;SDS011;29884;47.450;19.124;2022-09-09T08:36:17;0.28;;;0.20;;
44214;SDS011;29884;47.450;19.124;2022-09-09T08:38:46;0.63;;;0.28;;
44214;SDS011;29884;47.450;19.124;2022-09-09T08:44:04;1.15;;;0.22;;
44214;SDS011;29884;47.450;19.124;2022-09-09T08:49:02;0.40;;;0.20;;
44214;SDS011;29884;47.450;19.124;2022-09-09T08:51:30;0.60;;;0.20;;
44214;SDS011;29884;47.450;19.124;2022-09-09T08:53:58;0.75;;;0.20;;
44214;SDS011;29884;47.450;19.124;2022-09-09T08:56:27;0.30;;;0.17;;
44214;SDS011;29884;47.450;19.124;2022-09-09T08:58:56;1.38;;;0.30;;
44214;SDS011;29884;47.450;19.124;2022-09-09T09:12:24;0.80;;;0.30;;
44214;SDS011;29884;47.450;19.124;2022-09-09T09:14:54;0.45;;;0.20;;
44214;SDS011;29884;47.450;19.124;2022-09-09T09:17:24;1.00;;;0.30;;
44214;SDS011;29884;47.450;19.124;2022-09-09T09:19:52;0.20;;;0.20;;
44214;SDS011;29884;47.450;19.124;2022-09-09T09:22:20;1.08;;;0.30;;
44214;SDS011;29884;47.450;19.124;2022-09-09T09:24:57;0.38;;;0.20;;
44214;SDS011;29884;47.450;19.124;2022-09-09T09:30:35;1.50;;;0.20;;
44214;SDS011;29884;47.450;19.124;2022-09-09T09:33:02;0.68;;;0.20;;
44214;SDS011;29884;47.450;19.124;2022-09-09T09:35:36;1.30;;;0.20;;
44214;SDS011;29884;47.450;19.124;2022-09-09T09:38:08;0.73;;;0.30;;
44214;SDS011;29884;47.450;19.124;2022-09-09T09:40:56;0.73;;;0.20;;
44214;SDS011;29884;47.450;19.124;2022-09-09T09:43:27;1.95;;;0.20;;
44214;SDS011;29884;47.450;19.124;2022-09-09T09:46:05;0.47;;;0.20;;
44214;SDS011;29884;47.450;19.124;2022-09-09T09:48:44;0.28;;;0.17;;
44214;SDS011;29884;47.450;19.124;2022-09-09T09:51:21;2.30;;;0.35;;
44214;SDS011;29884;47.450;19.124;2022-09-09T09:53:48;1.48;;;0.25;;
44214;SDS011;29884;47.450;19.124;2022-09-09T09:56:14;0.40;;;0.20;;
44214;SDS011;29884;47.450;19.124;2022-09-09T10:03:53;0.45;;;0.20;;
44214;SDS011;29884;47.450;19.124;2022-09-09T10:08:58;2.15;;;0.30;;
44214;SDS011;29884;47.450;19.124;2022-09-09T10:14:12;0.95;;;0.20;;
44214;SDS011;29884;47.450;19.124;2022-09-09T10:19:37;2.38;;;0.40;;
44214;SDS011;29884;47.450;19.124;2022-09-09T10:32:40;0.10;;;0.10;;
44214;SDS011;29884;47.450;19.124;2022-09-09T10:35:14;1.52;;;0.22;;
44214;SDS011;29884;47.450;19.124;2022-09-09T10:37:53;2.42;;;0.20;;
44214;SDS011;29884;47.450;19.124;2022-09-09T10:40:41;0.30;;;0.10;;
44214;SDS011;29884;47.450;19.124;2022-09-09T10:43:23;1.40;;;0.20;;
44214;SDS011;29884;47.450;19.124;2022-09-09T10:53:02;0.30;;;0.20;;
44214;SDS011;29884;47.450;19.124;2022-09-09T10:56:11;0.60;;;0.30;;
44214;SDS011;29884;47.450;19.124;2022-09-09T10:58:42;0.55;;;0.20;;
44214;SDS011;29884;47.450;19.124;2022-09-09T11:01:15;0.30;;;0.20;;
44214;SDS011;29884;47.450;19.124;2022-09-09T11:04:05;0.45;;;0.20;;
44214;SDS011;29884;47.450;19.124;2022-09-09T11:06:39;0.50;;;0.20;;
44214;SDS011;29884;47.450;19.124;2022-09-09T11:09:13;1.70;;;0.20;;
44214;SDS011;29884;47.450;19.124;2022-09-09T11:11:48;0.10;;;0.10;;
44214;SDS011;29884;47.450;19.124;2022-09-09T11:17:00;0.28;;;0.17;;
44214;SDS011;29884;47.450;19.124;2022-09-09T11:19:34;0.82;;;0.20;;
44214;SDS011;29884;47.450;19.124;2022-09-09T11:22:06;0.50;;;0.15;;
44214;SDS011;29884;47.450;19.124;2022-09-09T11:24:41;0.22;;;0.20;;
44214;SDS011;29884;47.450;19.124;2022-09-09T11:27:26;0.30;;;0.20;;
44214;SDS011;29884;47.450;19.124;2022-09-09T11:32:29;0.20;;;0.10;;
44214;SDS011;29884;47.450;19.124;2022-09-09T11:38:26;0.20;;;0.20;;
44214;SDS011;29884;47.450;19.124;2022-09-09T11:41:04;0.47;;;0.20;;
44214;SDS011;29884;47.450;19.124;2022-09-09T11:46:06;0.70;;;0.20;;
44214;SDS011;29884;47.450;19.124;2022-09-09T11:48:41;1.02;;;0.20;;
44214;SDS011;29884;47.450;19.124;2022-09-09T11:53:59;1.05;;;0.10;;
44214;SDS011;29884;47.450;19.124;2022-09-09T11:56:41;0.38;;;0.20;;
44214;SDS011;29884;47.450;19.124;2022-09-09T12:01:55;0.73;;;0.20;;
44214;SDS011;29884;47.450;19.124;2022-09-09T12:04:58;0.50;;;0.10;;
44214;SDS011;29884;47.450;19.124;2022-09-09T12:07:50;0.40;;;0.10;;
44214;SDS011;29884;47.450;19.124;2022-09-09T12:12:52;0.10;;;0.10;;
44214;SDS011;29884;47.450;19.124;2022-09-09T12:15:23;0.32;;;0.20;;
44214;SDS011;29884;47.450;19.124;2022-09-09T12:17:54;0.25;;;0.10;;
44214;SDS011;29884;47.450;19.124;2022-09-09T12:28:22;0.50;;;0.20;;
44214;SDS011;29884;47.450;19.124;2022-09-09T12:33:45;0.60;;;0.20;;
44214;SDS011;29884;47.450;19.124;2022-09-09T12:36:16;2.17;;;0.20;;
44214;SDS011;29884;47.450;19.124;2022-09-09T12:39:09;0.65;;;0.20;;
44214;SDS011;29884;47.450;19.124;2022-09-09T12:41:50;0.40;;;0.20;;
44214;SDS011;29884;47.450;19.124;2022-09-09T12:44:21;0.20;;;0.10;;
44214;SDS011;29884;47.450;19.124;2022-09-09T12:46:47;0.25;;;0.10;;
44214;SDS011;29884;47.450;19.124;2022-09-09T12:49:27;1.00;;;0.20;;
44214;SDS011;29884;47.450;19.124;2022-09-09T12:52:35;2.50;;;0.80;;
44214;SDS011;29884;47.450;19.124;2022-09-09T12:54:57;1.58;;;0.40;;
44214;SDS011;29884;47.450;19.124;2022-09-09T12:57:25;3.05;;;0.28;;
44214;SDS011;29884;47.450;19.124;2022-09-09T13:00:03;1.25;;;0.25;;
44214;SDS011;29884;47.450;19.124;2022-09-09T13:02:33;0.70;;;0.22;;
44214;SDS011;29884;47.450;19.124;2022-09-09T13:05:06;1.92;;;0.50;;
44214;SDS011;29884;47.450;19.124;2022-09-09T13:07:39;0.47;;;0.20;;
44214;SDS011;29884;47.450;19.124;2022-09-09T13:10:05;0.32;;;0.20;;
44214;SDS011;29884;47.450;19.124;2022-09-09T13:12:35;0.38;;;0.22;;
44214;SDS011;29884;47.450;19.124;2022-09-09T13:15:01;1.95;;;0.20;;
44214;SDS011;29884;47.450;19.124;2022-09-09T13:17:27;0.60;;;0.30;;
44214;SDS011;29884;47.450;19.124;2022-09-09T13:19:56;1.50;;;0.10;;
44214;SDS011;29884;47.450;19.124;2022-09-09T13:22:33;0.73;;;0.20;;
44214;SDS011;29884;47.450;19.124;2022-09-09T13:25:23;0.40;;;0.20;;
44214;SDS011;29884;47.450;19.124;2022-09-09T13:30:28;0.60;;;0.20;;
44214;SDS011;29884;47.450;19.124;2022-09-09T13:35:29;0.17;;;0.13;;
44214;SDS011;29884;47.450;19.124;2022-09-09T13:37:55;0.25;;;0.10;;
44214;SDS011;29884;47.450;19.124;2022-09-09T13:40:22;1.63;;;0.30;;
44214;SDS011;29884;47.450;19.124;2022-09-09T13:42:52;1.30;;;0.17;;
44214;SDS011;29884;47.450;19.124;2022-09-09T13:45:22;2.03;;;0.40;;
44214;SDS011;29884;47.450;19.124;2022-09-09T13:47:52;1.23;;;0.28;;
44214;SDS011;29884;47.450;19.124;2022-09-09T13:50:29;1.55;;;0.20;;
44214;SDS011;29884;47.450;19.124;2022-09-09T13:52:56;0.47;;;0.20;;
44214;SDS011;29884;47.450;19.124;2022-09-09T13:55:24;0.70;;;0.10;;
44214;SDS011;29884;47.450;19.124;2022-09-09T14:00:20;0.88;;;0.20;;
44214;SDS011;29884;47.450;19.124;2022-09-09T14:02:46;0.70;;;0.20;;
44214;SDS011;29884;47.450;19.124;2022-09-09T14:05:13;0.93;;;0.20;;
44214;SDS011;29884;47.450;19.124;2022-09-09T14:07:40;0.25;;;0.10;;
44214;SDS011;29884;47.450;19.124;2022-09-09T14:10:07;0.60;;;0.13;;
44214;SDS011;29884;47.450;19.124;2022-09-09T14:12:34;0.68;;;0.30;;
44214;SDS011;29884;47.450;19.124;2022-09-09T14:15:01;0.22;;;0.20;;
44214;SDS011;29884;47.450;19.124;2022-09-09T14:17:31;0.93;;;0.20;;
44214;SDS011;29884;47.450;19.124;2022-09-09T14:19:57;0.63;;;0.10;;
44214;SDS011;29884;47.450;19.124;2022-09-09T14:22:23;1.63;;;0.17;;
44214;SDS011;29884;47.450;19.124;2022-09-09T14:24:51;0.25;;;0.10;;
44214;SDS011;29884;47.450;19.124;2022-09-09T14:27:17;0.22;;;0.10;;
44214;SDS011;29884;47.450;19.124;2022-09-09T14:29:44;0.63;;;0.10;;
44214;SDS011;29884;47.450;19.124;2022-09-09T14:32:10;0.28;;;0.10;;
44214;SDS011;29884;47.450;19.124;2022-09-09T14:34:36;0.45;;;0.20;;
44214;SDS011;29884;47.450;19.124;2022-09-09T14:37:02;2.15;;;0.20;;
44214;SDS011;29884;47.450;19.124;2022-09-09T14:39:28;0.88;;;0.20;;
44214;SDS011;29884;47.450;19.124;2022-09-09T14:41:53;0.28;;;0.10;;
44214;SDS011;29884;47.450;19.124;2022-09-09T14:44:19;0.60;;;0.20;;
44214;SDS011;29884;47.450;19.124;2022-09-09T14:46:45;0.32;;;0.10;;
44214;SDS011;29884;47.450;19.124;2022-09-09T14:49:11;0.38;;;0.10;;
44214;SDS011;29884;47.450;19.124;2022-09-09T14:51:38;0.20;;;0.10;;
44214;SDS011;29884;47.450;19.124;2022-09-09T14:54:04;0.95;;;0.20;;
44214;SDS011;29884;47.450;19.124;2022-09-09T14:56:31;0.22;;;0.10;;
44214;SDS011;29884;47.450;19.124;2022-09-09T14:58:59;0.20;;;0.10;;
44214;SDS011;29884;47.450;19.124;2022-09-09T15:01:26;0.20;;;0.10;;
44214;SDS011;29884;47.450;19.124;2022-09-09T15:03:53;1.52;;;0.13;;
44214;SDS011;29884;47.450;19.124;2022-09-09T15:06:23;0.50;;;0.10;;
44214;SDS011;29884;47.450;19.124;2022-09-09T15:08:51;0.60;;;0.20;;
44214;SDS011;29884;47.450;19.124;2022-09-09T15:11:18;1.10;;;0.20;;
44214;SDS011;29884;47.450;19.124;2022-09-09T15:13:45;0.75;;;0.20;;
44214;SDS011;29884;47.450;19.124;2022-09-09T15:16:14;0.75;;;0.20;;
44214;SDS011;29884;47.450;19.124;2022-09-09T15:18:41;0.20;;;0.10;;
44214;SDS011;29884;47.450;19.124;2022-09-09T15:21:11;0.35;;;0.20;;
44214;SDS011;29884;47.450;19.124;2022-09-09T15:23:39;1.08;;;0.10;;
44214;SDS011;29884;47.450;19.124;2022-09-09T15:26:05;2.70;;;0.15;;
44214;SDS011;29884;47.450;19.124;2022-09-09T15:28:32;1.85;;;0.10;;
44214;SDS011;29884;47.450;19.124;2022-09-09T15:31:07;0.35;;;0.20;;
44214;SDS011;29884;47.450;19.124;2022-09-09T15:33:39;0.25;;;0.10;;
44214;SDS011;29884;47.450;19.124;2022-09-09T15:36:15;0.43;;;0.20;;
44214;SDS011;29884;47.450;19.124;2022-09-09T15:38:45;1.08;;;0.28;;
44214;SDS011;29884;47.450;19.124;2022-09-09T15:41:14;0.82;;;0.20;;
44214;SDS011;29884;47.450;19.124;2022-09-09T15:43:44;0.20;;;0.20;;
44214;SDS011;29884;47.450;19.124;2022-09-09T15:48:43;0.20;;;0.10;;
44214;SDS011;29884;47.450;19.124;2022-09-09T15:51:09;0.13;;;0.10;;
44214;SDS011;29884;47.450;19.124;2022-09-09T15:53:36;0.10;;;0.10;;
44214;SDS011;29884;47.450;19.124;2022-09-09T15:56:04;0.85;;;0.10;;
44214;SDS011;29884;47.450;19.124;2022-09-09T15:58:31;0.52;;;0.13;;
44214;SDS011;29884;47.450;19.124;2022-09-09T16:01:06;0.20;;;0.10;;
44214;SDS011;29884;47.450;19.124;2022-09-09T16:03:38;0.22;;;0.10;;
44214;SDS011;29884;47.450;19.124;2022-09-09T16:06:07;2.15;;;0.10;;
44214;SDS011;29884;47.450;19.124;2022-09-09T16:08:34;0.22;;;0.15;;
44214;SDS011;29884;47.450;19.124;2022-09-09T16:11:08;0.50;;;0.20;;
44214;SDS011;29884;47.450;19.124;2022-09-09T16:13:35;0.50;;;0.20;;
44214;SDS011;29884;47.450;19.124;2022-09-09T16:16:05;1.85;;;0.20;;
44214;SDS011;29884;47.450;19.124;2022-09-09T16:18:42;0.30;;;0.20;;
44214;SDS011;29884;47.450;19.124;2022-09-09T16:21:32;0.35;;;0.20;;
44214;SDS011;29884;47.450;19.124;2022-09-09T16:23:58;0.82;;;0.20;;
44214;SDS011;29884;47.450;19.124;2022-09-09T16:26:25;0.70;;;0.20;;
44214;SDS011;29884;47.450;19.124;2022-09-09T16:28:52;0.65;;;0.20;;
44214;SDS011;29884;47.450;19.124;2022-09-09T16:31:19;0.45;;;0.20;;
44214;SDS011;29884;47.450;19.124;2022-09-09T16:33:47;0.70;;;0.30;;
44214;SDS011;29884;47.450;19.124;2022-09-09T16:36:17;0.57;;;0.20;;
44214;SDS011;29884;47.450;19.124;2022-09-09T16:38:48;0.45;;;0.20;;
44214;SDS011;29884;47.450;19.124;2022-09-09T16:41:16;0.85;;;0.20;;
44214;SDS011;29884;47.450;19.124;2022-09-09T16:43:42;3.78;;;0.30;;
44214;SDS011;29884;47.450;19.124;2022-09-09T16:46:17;0.50;;;0.20;;
44214;SDS011;29884;47.450;19.124;2022-09-09T16:48:44;2.00;;;0.40;;
44214;SDS011;29884;47.450;19.124;2022-09-09T16:51:15;1.52;;;0.82;;
44214;SDS011;29884;47.450;19.124;2022-09-09T16:53:43;5.32;;;1.30;;
44214;SDS011;29884;47.450;19.124;2022-09-09T16:56:20;2.53;;;1.30;;
44214;SDS011;29884;47.450;19.124;2022-09-09T16:58:51;2.65;;;1.45;;
44214;SDS011;29884;47.450;19.124;2022-09-09T17:01:23;5.32;;;2.22;;
44214;SDS011;29884;47.450;19.124;2022-09-09T17:04:08;3.10;;;2.00;;
44214;SDS011;29884;47.450;19.124;2022-09-09T17:06:36;4.55;;;1.20;;